sensor_id;sensor_type;location;lat;lon;timestamp;pressure;altitude;pressure_sealevel;temperature;humidity
44697;BME280;57264;47.480;19.354;2023-04-03T00:00:06;99018.47;;;6.01;82.05
44697;BME280;57264;47.480;19.354;2023-04-03T00:02:32;99016.75;;;5.94;81.73
44697;BME280;57264;47.480;19.354;2023-04-03T00:04:58;99023.47;;;6.03;80.24
44697;BME280;57264;47.480;19.354;2023-04-03T00:07:23;99019.19;;;5.95;82.05
44697;BME280;57264;47.480;19.354;2023-04-03T00:09:49;99023.13;;;5.91;81.79
44697;BME280;57264;47.480;19.354;2023-04-03T00:12:14;99020.88;;;5.74;82.31
44697;BME280;57264;47.480;19.354;2023-04-03T00:14:40;99017.72;;;5.78;82.44
44697;BME280;57264;47.480;19.354;2023-04-03T00:17:06;99016.94;;;5.78;83.10
44697;BME280;57264;47.480;19.354;2023-04-03T00:19:31;99021.72;;;5.89;81.06
44697;BME280;57264;47.480;19.354;2023-04-03T00:21:57;99023.75;;;5.79;82.01
44697;BME280;57264;47.480;19.354;2023-04-03T00:24:22;99027.59;;;5.68;83.99
44697;BME280;57264;47.480;19.354;2023-04-03T00:26:48;99031.31;;;5.74;84.00
44697;BME280;57264;47.480;19.354;2023-04-03T00:29:13;99030.41;;;5.81;82.78
44697;BME280;57264;47.480;19.354;2023-04-03T00:31:39;99031.94;;;5.90;81.07
44697;BME280;57264;47.480;19.354;2023-04-03T00:34:05;99029.22;;;5.84;79.70
44697;BME280;57264;47.480;19.354;2023-04-03T00:36:31;99026.00;;;5.82;80.40
44697;BME280;57264;47.480;19.354;2023-04-03T00:38:56;99023.13;;;5.77;79.48
44697;BME280;57264;47.480;19.354;2023-04-03T00:41:22;99025.63;;;5.70;80.27
44697;BME280;57264;47.480;19.354;2023-04-03T00:43:47;99026.19;;;5.65;80.11
44697;BME280;57264;47.480;19.354;2023-04-03T00:46:13;99012.88;;;5.60;79.50
44697;BME280;57264;47.480;19.354;2023-04-03T00:48:44;99021.59;;;5.53;78.82
44697;BME280;57264;47.480;19.354;2023-04-03T00:51:14;99016.91;;;5.48;78.07
44697;BME280;57264;47.480;19.354;2023-04-03T00:53:46;99014.47;;;5.47;77.74
44697;BME280;57264;47.480;19.354;2023-04-03T00:56:14;99018.63;;;5.41;78.00
44697;BME280;57264;47.480;19.354;2023-04-03T00:58:58;99019.69;;;5.32;79.00
44697;BME280;57264;47.480;19.354;2023-04-03T01:04:33;99030.69;;;5.34;78.52
44697;BME280;57264;47.480;19.354;2023-04-03T01:07:07;99024.50;;;5.21;81.54
44697;BME280;57264;47.480;19.354;2023-04-03T01:09:34;99037.69;;;5.19;80.32
44697;BME280;57264;47.480;19.354;2023-04-03T01:12:14;99043.47;;;5.06;82.89
44697;BME280;57264;47.480;19.354;2023-04-03T01:14:42;99043.81;;;5.03;82.68
44697;BME280;57264;47.480;19.354;2023-04-03T01:17:39;99044.88;;;5.17;82.70
44697;BME280;57264;47.480;19.354;2023-04-03T01:23:25;99046.84;;;4.92;84.16
44697;BME280;57264;47.480;19.354;2023-04-03T01:25:50;99039.31;;;4.75;83.52
44697;BME280;57264;47.480;19.354;2023-04-03T01:28:31;99044.25;;;4.92;81.84
44697;BME280;57264;47.480;19.354;2023-04-03T01:31:31;99039.09;;;4.84;80.42
44697;BME280;57264;47.480;19.354;2023-04-03T01:33:59;99039.91;;;4.85;80.64
44697;BME280;57264;47.480;19.354;2023-04-03T01:36:27;99041.00;;;4.90;80.37
44697;BME280;57264;47.480;19.354;2023-04-03T01:38:55;99048.53;;;4.85;80.47
44697;BME280;57264;47.480;19.354;2023-04-03T01:41:22;99042.69;;;4.83;80.23
44697;BME280;57264;47.480;19.354;2023-04-03T01:43:48;99047.06;;;4.83;80.67
44697;BME280;57264;47.480;19.354;2023-04-03T01:46:14;99049.59;;;4.68;81.21
44697;BME280;57264;47.480;19.354;2023-04-03T01:48:40;99055.22;;;4.80;81.01
44697;BME280;57264;47.480;19.354;2023-04-03T01:51:06;99052.22;;;4.68;83.16
44697;BME280;57264;47.480;19.354;2023-04-03T01:53:31;99051.97;;;4.55;84.41
44697;BME280;57264;47.480;19.354;2023-04-03T01:55:57;99055.06;;;4.81;82.48
44697;BME280;57264;47.480;19.354;2023-04-03T01:58:22;99056.84;;;4.81;82.83
44697;BME280;57264;47.480;19.354;2023-04-03T02:00:48;99053.88;;;4.84;81.47
44697;BME280;57264;47.480;19.354;2023-04-03T02:03:13;99062.16;;;4.87;81.11
44697;BME280;57264;47.480;19.354;2023-04-03T02:05:40;99056.66;;;4.82;81.63
44697;BME280;57264;47.480;19.354;2023-04-03T02:08:05;99051.44;;;4.82;80.86
44697;BME280;57264;47.480;19.354;2023-04-03T02:10:31;99050.22;;;4.70;81.52
44697;BME280;57264;47.480;19.354;2023-04-03T02:12:56;99053.28;;;4.73;82.28
44697;BME280;57264;47.480;19.354;2023-04-03T02:15:22;99052.63;;;4.80;82.02
44697;BME280;57264;47.480;19.354;2023-04-03T02:17:47;99052.50;;;4.73;82.69
44697;BME280;57264;47.480;19.354;2023-04-03T02:20:13;99065.16;;;4.76;83.32
44697;BME280;57264;47.480;19.354;2023-04-03T02:22:39;99055.84;;;4.82;83.33
44697;BME280;57264;47.480;19.354;2023-04-03T02:25:04;99059.66;;;4.71;84.33
44697;BME280;57264;47.480;19.354;2023-04-03T02:27:30;99064.03;;;4.70;84.36
44697;BME280;57264;47.480;19.354;2023-04-03T02:29:57;99061.44;;;4.70;83.92
44697;BME280;57264;47.480;19.354;2023-04-03T02:32:22;99063.38;;;4.77;84.05
44697;BME280;57264;47.480;19.354;2023-04-03T02:34:48;99061.91;;;4.74;83.65
44697;BME280;57264;47.480;19.354;2023-04-03T02:37:13;99056.66;;;4.82;83.77
44697;BME280;57264;47.480;19.354;2023-04-03T02:39:39;99056.50;;;4.84;81.82
44697;BME280;57264;47.480;19.354;2023-04-03T02:42:05;99061.19;;;4.88;82.59
44697;BME280;57264;47.480;19.354;2023-04-03T02:44:30;99057.81;;;4.80;81.93
44697;BME280;57264;47.480;19.354;2023-04-03T02:46:56;99054.34;;;4.87;80.69
44697;BME280;57264;47.480;19.354;2023-04-03T02:49:22;99057.59;;;4.89;79.23
44697;BME280;57264;47.480;19.354;2023-04-03T02:51:47;99054.59;;;5.00;78.00
44697;BME280;57264;47.480;19.354;2023-04-03T02:54:13;99056.66;;;4.82;78.27
44697;BME280;57264;47.480;19.354;2023-04-03T02:56:39;99049.25;;;4.94;75.96
44697;BME280;57264;47.480;19.354;2023-04-03T02:59:04;99059.66;;;4.94;75.93
44697;BME280;57264;47.480;19.354;2023-04-03T03:01:30;99063.13;;;4.86;75.92
44697;BME280;57264;47.480;19.354;2023-04-03T03:03:58;99063.47;;;4.83;75.93
44697;BME280;57264;47.480;19.354;2023-04-03T03:06:24;99064.59;;;4.89;76.33
44697;BME280;57264;47.480;19.354;2023-04-03T03:08:50;99068.78;;;4.67;77.77
44697;BME280;57264;47.480;19.354;2023-04-03T03:11:15;99071.34;;;4.75;76.05
44697;BME280;57264;47.480;19.354;2023-04-03T03:13:41;99065.16;;;4.76;75.06
44697;BME280;57264;47.480;19.354;2023-04-03T03:16:07;99067.75;;;4.76;75.46
44697;BME280;57264;47.480;19.354;2023-04-03T03:18:33;99066.47;;;4.72;75.15
44697;BME280;57264;47.480;19.354;2023-04-03T03:21:00;99065.66;;;4.71;75.42
44697;BME280;57264;47.480;19.354;2023-04-03T03:23:27;99070.22;;;4.69;75.53
44697;BME280;57264;47.480;19.354;2023-04-03T03:26:01;99068.31;;;4.63;74.44
44697;BME280;57264;47.480;19.354;2023-04-03T03:28:27;99072.09;;;4.61;76.50
44697;BME280;57264;47.480;19.354;2023-04-03T03:30:53;99073.06;;;4.60;76.25
44697;BME280;57264;47.480;19.354;2023-04-03T03:33:18;99077.38;;;4.45;77.47
44697;BME280;57264;47.480;19.354;2023-04-03T03:35:44;99071.50;;;4.43;78.27
44697;BME280;57264;47.480;19.354;2023-04-03T03:38:10;99080.72;;;4.53;77.50
44697;BME280;57264;47.480;19.354;2023-04-03T03:40:36;99075.03;;;4.50;76.89
44697;BME280;57264;47.480;19.354;2023-04-03T03:43:01;99074.38;;;4.56;76.54
44697;BME280;57264;47.480;19.354;2023-04-03T03:45:27;99073.13;;;4.44;76.42
44697;BME280;57264;47.480;19.354;2023-04-03T03:47:52;99076.03;;;4.49;75.35
44697;BME280;57264;47.480;19.354;2023-04-03T03:50:18;99067.25;;;4.50;75.15
44697;BME280;57264;47.480;19.354;2023-04-03T03:52:43;99075.94;;;4.34;75.73
44697;BME280;57264;47.480;19.354;2023-04-03T03:55:10;99074.50;;;4.32;74.60
44697;BME280;57264;47.480;19.354;2023-04-03T03:57:35;99074.00;;;4.36;74.99
44697;BME280;57264;47.480;19.354;2023-04-03T04:00:02;99077.09;;;4.32;75.35
44697;BME280;57264;47.480;19.354;2023-04-03T04:02:28;99077.47;;;4.20;75.38
44697;BME280;57264;47.480;19.354;2023-04-03T04:04:53;99074.53;;;4.23;75.40
44697;BME280;57264;47.480;19.354;2023-04-03T04:07:19;99083.66;;;4.11;73.97
44697;BME280;57264;47.480;19.354;2023-04-03T04:09:45;99079.13;;;4.05;73.68
44697;BME280;57264;47.480;19.354;2023-04-03T04:12:10;99078.16;;;4.06;73.96
44697;BME280;57264;47.480;19.354;2023-04-03T04:14:36;99084.69;;;3.94;75.19
44697;BME280;57264;47.480;19.354;2023-04-03T04:17:01;99089.88;;;3.94;76.03
44697;BME280;57264;47.480;19.354;2023-04-03T04:19:27;99081.78;;;3.89;74.90
44697;BME280;57264;47.480;19.354;2023-04-03T04:21:53;99086.63;;;4.00;73.55
44697;BME280;57264;47.480;19.354;2023-04-03T04:24:19;99082.59;;;3.90;74.46
44697;BME280;57264;47.480;19.354;2023-04-03T04:26:44;99078.53;;;3.95;74.83
44697;BME280;57264;47.480;19.354;2023-04-03T04:29:10;99078.19;;;3.98;73.61
44697;BME280;57264;47.480;19.354;2023-04-03T04:31:36;99085.50;;;3.95;73.63
44697;BME280;57264;47.480;19.354;2023-04-03T04:34:01;99085.97;;;3.98;73.04
44697;BME280;57264;47.480;19.354;2023-04-03T04:36:27;99085.03;;;3.91;75.50
44697;BME280;57264;47.480;19.354;2023-04-03T04:38:52;99081.63;;;3.91;75.16
44697;BME280;57264;47.480;19.354;2023-04-03T04:41:21;99084.31;;;4.05;74.71
44697;BME280;57264;47.480;19.354;2023-04-03T04:43:52;99087.44;;;4.01;73.67
44697;BME280;57264;47.480;19.354;2023-04-03T04:46:18;99086.00;;;3.90;73.68
44697;BME280;57264;47.480;19.354;2023-04-03T04:48:44;99094.25;;;3.94;74.77
44697;BME280;57264;47.480;19.354;2023-04-03T04:51:10;99101.56;;;3.98;74.56
44697;BME280;57264;47.480;19.354;2023-04-03T04:53:36;99092.66;;;4.01;74.38
44697;BME280;57264;47.480;19.354;2023-04-03T04:56:02;99097.19;;;3.91;75.36
44697;BME280;57264;47.480;19.354;2023-04-03T04:58:28;99110.00;;;4.08;72.85
44697;BME280;57264;47.480;19.354;2023-04-03T05:01:00;99110.28;;;4.05;74.26
44697;BME280;57264;47.480;19.354;2023-04-03T05:03:26;99112.53;;;4.24;72.00
44697;BME280;57264;47.480;19.354;2023-04-03T05:05:51;99110.44;;;4.20;71.51
44697;BME280;57264;47.480;19.354;2023-04-03T05:08:17;99106.84;;;4.29;71.56
44697;BME280;57264;47.480;19.354;2023-04-03T05:10:45;99113.16;;;4.27;72.82
44697;BME280;57264;47.480;19.354;2023-04-03T05:13:11;99121.59;;;4.37;73.06
44697;BME280;57264;47.480;19.354;2023-04-03T05:15:36;99113.50;;;4.23;72.53
44697;BME280;57264;47.480;19.354;2023-04-03T05:18:02;99116.00;;;4.48;71.36
44697;BME280;57264;47.480;19.354;2023-04-03T05:20:28;99116.44;;;4.59;74.36
44697;BME280;57264;47.480;19.354;2023-04-03T05:22:53;99113.84;;;4.82;72.29
44697;BME280;57264;47.480;19.354;2023-04-03T05:25:19;99119.25;;;4.81;70.91
44697;BME280;57264;47.480;19.354;2023-04-03T05:27:45;99117.28;;;4.83;69.19
44697;BME280;57264;47.480;19.354;2023-04-03T05:30:11;99113.59;;;4.77;70.77
44697;BME280;57264;47.480;19.354;2023-04-03T05:32:36;99121.19;;;4.79;70.85
44697;BME280;57264;47.480;19.354;2023-04-03T05:35:02;99114.81;;;4.58;72.02
44697;BME280;57264;47.480;19.354;2023-04-03T05:37:28;99115.47;;;4.83;69.44
44697;BME280;57264;47.480;19.354;2023-04-03T05:39:53;99112.69;;;4.93;70.51
44697;BME280;57264;47.480;19.354;2023-04-03T05:42:19;99126.81;;;4.90;72.13
44697;BME280;57264;47.480;19.354;2023-04-03T05:44:44;99126.59;;;4.77;73.32
44697;BME280;57264;47.480;19.354;2023-04-03T05:47:12;99116.31;;;5.06;71.51
44697;BME280;57264;47.480;19.354;2023-04-03T05:49:38;99123.38;;;5.21;70.32
44697;BME280;57264;47.480;19.354;2023-04-03T05:52:13;99120.66;;;5.37;70.29
44697;BME280;57264;47.480;19.354;2023-04-03T05:54:43;99111.25;;;5.88;68.34
44697;BME280;57264;47.480;19.354;2023-04-03T05:57:09;99128.78;;;6.08;63.94
44697;BME280;57264;47.480;19.354;2023-04-03T05:59:35;99119.34;;;6.07;66.26
44697;BME280;57264;47.480;19.354;2023-04-03T06:02:00;99113.47;;;5.76;66.97
44697;BME280;57264;47.480;19.354;2023-04-03T06:04:26;99123.81;;;5.84;65.67
44697;BME280;57264;47.480;19.354;2023-04-03T06:06:54;99119.72;;;6.19;64.99
44697;BME280;57264;47.480;19.354;2023-04-03T06:09:23;99127.34;;;6.35;64.24
44697;BME280;57264;47.480;19.354;2023-04-03T06:11:49;99130.28;;;6.47;63.40
44697;BME280;57264;47.480;19.354;2023-04-03T06:14:14;99132.13;;;6.32;66.56
44697;BME280;57264;47.480;19.354;2023-04-03T06:16:40;99129.97;;;6.21;64.12
44697;BME280;57264;47.480;19.354;2023-04-03T06:19:08;99128.28;;;6.64;63.43
44697;BME280;57264;47.480;19.354;2023-04-03T06:21:34;99133.34;;;6.65;62.25
44697;BME280;57264;47.480;19.354;2023-04-03T06:24:02;99135.88;;;6.44;62.04
44697;BME280;57264;47.480;19.354;2023-04-03T06:26:28;99132.13;;;6.17;62.21
44697;BME280;57264;47.480;19.354;2023-04-03T06:28:54;99138.41;;;6.08;60.36
44697;BME280;57264;47.480;19.354;2023-04-03T06:31:19;99146.56;;;5.90;61.00
44697;BME280;57264;47.480;19.354;2023-04-03T06:33:45;99145.16;;;5.80;61.57
44697;BME280;57264;47.480;19.354;2023-04-03T06:36:11;99146.22;;;5.93;62.47
44697;BME280;57264;47.480;19.354;2023-04-03T06:38:37;99141.22;;;5.84;62.96
44697;BME280;57264;47.480;19.354;2023-04-03T06:41:02;99150.91;;;6.42;61.40
44697;BME280;57264;47.480;19.354;2023-04-03T06:43:28;99143.50;;;6.60;60.12
44697;BME280;57264;47.480;19.354;2023-04-03T06:45:53;99147.53;;;6.63;60.03
44697;BME280;57264;47.480;19.354;2023-04-03T06:48:19;99161.56;;;7.12;60.19
44697;BME280;57264;47.480;19.354;2023-04-03T06:50:44;99150.84;;;7.07;59.79
44697;BME280;57264;47.480;19.354;2023-04-03T06:53:10;99152.63;;;7.21;58.88
44697;BME280;57264;47.480;19.354;2023-04-03T06:55:37;99148.31;;;7.35;59.88
44697;BME280;57264;47.480;19.354;2023-04-03T06:58:03;99146.53;;;7.35;59.22
44697;BME280;57264;47.480;19.354;2023-04-03T07:00:30;99154.34;;;7.35;59.25
44697;BME280;57264;47.480;19.354;2023-04-03T07:02:56;99158.88;;;7.27;59.88
44697;BME280;57264;47.480;19.354;2023-04-03T07:05:23;99156.16;;;7.35;59.92
44697;BME280;57264;47.480;19.354;2023-04-03T07:07:49;99164.06;;;7.20;58.70
44697;BME280;57264;47.480;19.354;2023-04-03T07:10:16;99171.94;;;7.05;58.01
44697;BME280;57264;47.480;19.354;2023-04-03T07:12:41;99171.63;;;6.94;58.12
44697;BME280;57264;47.480;19.354;2023-04-03T07:15:08;99173.25;;;6.80;59.04
44697;BME280;57264;47.480;19.354;2023-04-03T07:17:33;99178.63;;;6.93;59.79
44697;BME280;57264;47.480;19.354;2023-04-03T07:19:59;99179.53;;;6.71;59.23
44697;BME280;57264;47.480;19.354;2023-04-03T07:22:25;99184.88;;;6.63;59.39
44697;BME280;57264;47.480;19.354;2023-04-03T07:24:51;99183.25;;;6.62;59.96
44697;BME280;57264;47.480;19.354;2023-04-03T07:27:17;99179.81;;;6.76;59.76
44697;BME280;57264;47.480;19.354;2023-04-03T07:29:43;99173.75;;;6.90;60.22
44697;BME280;57264;47.480;19.354;2023-04-03T07:32:10;99176.84;;;6.79;59.52
44697;BME280;57264;47.480;19.354;2023-04-03T07:34:36;99186.41;;;6.72;59.62
44697;BME280;57264;47.480;19.354;2023-04-03T07:37:02;99179.66;;;6.63;60.42
44697;BME280;57264;47.480;19.354;2023-04-03T07:39:28;99186.34;;;6.87;60.43
44697;BME280;57264;47.480;19.354;2023-04-03T07:41:54;99189.13;;;7.00;58.76
44697;BME280;57264;47.480;19.354;2023-04-03T07:44:23;99189.78;;;6.87;60.48
44697;BME280;57264;47.480;19.354;2023-04-03T07:46:49;99188.72;;;7.18;58.22
44697;BME280;57264;47.480;19.354;2023-04-03T07:49:16;99187.09;;;7.17;58.52
44697;BME280;57264;47.480;19.354;2023-04-03T07:51:44;99192.66;;;7.28;57.58
44697;BME280;57264;47.480;19.354;2023-04-03T07:54:10;99188.06;;;6.94;58.36
44697;BME280;57264;47.480;19.354;2023-04-03T07:56:36;99189.66;;;7.31;57.47
44697;BME280;57264;47.480;19.354;2023-04-03T07:59:02;99192.97;;;7.40;57.39
44697;BME280;57264;47.480;19.354;2023-04-03T08:01:28;99196.56;;;7.18;56.76
44697;BME280;57264;47.480;19.354;2023-04-03T08:03:54;99197.88;;;7.28;57.98
44697;BME280;57264;47.480;19.354;2023-04-03T08:06:20;99195.25;;;7.28;57.29
44697;BME280;57264;47.480;19.354;2023-04-03T08:08:45;99202.03;;;7.44;57.26
44697;BME280;57264;47.480;19.354;2023-04-03T08:11:12;99205.91;;;7.48;59.08
44697;BME280;57264;47.480;19.354;2023-04-03T08:13:38;99199.69;;;7.70;57.60
44697;BME280;57264;47.480;19.354;2023-04-03T08:16:09;99200.59;;;7.84;56.20
44697;BME280;57264;47.480;19.354;2023-04-03T08:18:34;99204.41;;;7.60;55.07
44697;BME280;57264;47.480;19.354;2023-04-03T08:21:00;99203.78;;;7.79;56.09
44697;BME280;57264;47.480;19.354;2023-04-03T08:23:26;99204.50;;;7.94;55.49
44697;BME280;57264;47.480;19.354;2023-04-03T08:25:53;99210.63;;;7.80;56.52
44697;BME280;57264;47.480;19.354;2023-04-03T08:28:18;99207.75;;;8.24;55.54
44697;BME280;57264;47.480;19.354;2023-04-03T08:30:44;99204.84;;;8.13;56.45
44697;BME280;57264;47.480;19.354;2023-04-03T08:33:11;99205.97;;;8.04;55.83
44697;BME280;57264;47.480;19.354;2023-04-03T08:35:40;99212.28;;;8.37;53.86
44697;BME280;57264;47.480;19.354;2023-04-03T08:38:07;99213.53;;;8.41;53.48
44697;BME280;57264;47.480;19.354;2023-04-03T08:40:33;99213.22;;;8.64;54.38
44697;BME280;57264;47.480;19.354;2023-04-03T08:43:33;99212.56;;;8.55;53.33
44697;BME280;57264;47.480;19.354;2023-04-03T08:46:03;99210.94;;;8.48;52.75
44697;BME280;57264;47.480;19.354;2023-04-03T08:48:34;99216.78;;;8.22;53.65
44697;BME280;57264;47.480;19.354;2023-04-03T08:51:15;99211.34;;;8.23;54.33
44697;BME280;57264;47.480;19.354;2023-04-03T08:54:04;99214.75;;;8.45;53.51
44697;BME280;57264;47.480;19.354;2023-04-03T08:56:31;99212.81;;;8.60;53.45
44697;BME280;57264;47.480;19.354;2023-04-03T08:59:03;99214.59;;;8.53;53.36
44697;BME280;57264;47.480;19.354;2023-04-03T09:01:36;99216.91;;;8.69;52.92
44697;BME280;57264;47.480;19.354;2023-04-03T09:04:10;99211.34;;;8.51;52.86
44697;BME280;57264;47.480;19.354;2023-04-03T09:06:38;99213.63;;;8.61;53.36
44697;BME280;57264;47.480;19.354;2023-04-03T09:14:39;99209.66;;;9.25;53.61
44697;BME280;57264;47.480;19.354;2023-04-03T09:19:58;99206.91;;;9.60;48.33
44697;BME280;57264;47.480;19.354;2023-04-03T09:22:31;99216.47;;;9.13;48.91
44697;BME280;57264;47.480;19.354;2023-04-03T09:27:45;99223.75;;;9.24;48.18
44697;BME280;57264;47.480;19.354;2023-04-03T09:30:23;99219.78;;;9.42;49.49
44697;BME280;57264;47.480;19.354;2023-04-03T09:32:52;99227.88;;;9.60;48.29
44697;BME280;57264;47.480;19.354;2023-04-03T09:35:33;99209.97;;;9.90;45.62
44697;BME280;57264;47.480;19.354;2023-04-03T09:38:22;99215.00;;;10.30;46.60
44697;BME280;57264;47.480;19.354;2023-04-03T09:41:07;99205.47;;;10.56;46.28
44697;BME280;57264;47.480;19.354;2023-04-03T09:43:39;99207.91;;;10.44;45.91
44697;BME280;57264;47.480;19.354;2023-04-03T09:46:30;99209.34;;;10.33;43.29
44697;BME280;57264;47.480;19.354;2023-04-03T09:49:03;99218.59;;;9.57;47.23
44697;BME280;57264;47.480;19.354;2023-04-03T09:51:29;99217.16;;;9.48;44.67
44697;BME280;57264;47.480;19.354;2023-04-03T09:53:57;99219.16;;;9.33;44.59
44697;BME280;57264;47.480;19.354;2023-04-03T09:56:29;99219.03;;;8.93;45.60
44697;BME280;57264;47.480;19.354;2023-04-03T10:01:32;99222.13;;;8.69;47.17
44697;BME280;57264;47.480;19.354;2023-04-03T10:04:18;99223.31;;;8.32;49.14
44697;BME280;57264;47.480;19.354;2023-04-03T10:06:52;99224.38;;;8.38;50.00
44697;BME280;57264;47.480;19.354;2023-04-03T10:09:22;99224.84;;;8.55;49.28
44697;BME280;57264;47.480;19.354;2023-04-03T10:12:11;99229.66;;;8.51;49.15
44697;BME280;57264;47.480;19.354;2023-04-03T10:14:55;99229.47;;;8.53;48.59
44697;BME280;57264;47.480;19.354;2023-04-03T10:17:59;99235.81;;;8.37;50.04
44697;BME280;57264;47.480;19.354;2023-04-03T10:20:44;99229.06;;;8.49;51.21
44697;BME280;57264;47.480;19.354;2023-04-03T10:28:33;99230.66;;;8.84;49.50
44697;BME280;57264;47.480;19.354;2023-04-03T10:47:59;99228.75;;;9.13;47.64
44697;BME280;57264;47.480;19.354;2023-04-03T10:56:26;99221.91;;;9.12;48.38
44697;BME280;57264;47.480;19.354;2023-04-03T11:01:46;99218.81;;;9.62;49.64
44697;BME280;57264;47.480;19.354;2023-04-03T11:04:14;99216.19;;;9.62;49.17
44697;BME280;57264;47.480;19.354;2023-04-03T11:06:53;99210.34;;;10.00;48.92
44697;BME280;57264;47.480;19.354;2023-04-03T11:09:28;99214.78;;;9.99;47.76
44697;BME280;57264;47.480;19.354;2023-04-03T11:12:04;99212.97;;;9.67;48.39
44697;BME280;57264;47.480;19.354;2023-04-03T11:14:35;99213.56;;;9.69;48.67
44697;BME280;57264;47.480;19.354;2023-04-03T11:19:48;99208.75;;;10.25;44.91
44697;BME280;57264;47.480;19.354;2023-04-03T11:25:03;99200.47;;;10.28;45.07
44697;BME280;57264;47.480;19.354;2023-04-03T11:27:37;99190.19;;;10.13;47.54
44697;BME280;57264;47.480;19.354;2023-04-03T11:30:07;99195.38;;;10.53;46.58
44697;BME280;57264;47.480;19.354;2023-04-03T11:32:49;99188.50;;;10.58;43.39
44697;BME280;57264;47.480;19.354;2023-04-03T11:35:19;99186.47;;;10.60;43.03
44697;BME280;57264;47.480;19.354;2023-04-03T11:37:48;99186.16;;;10.95;43.75
44697;BME280;57264;47.480;19.354;2023-04-03T11:42:48;99189.53;;;10.51;42.71
44697;BME280;57264;47.480;19.354;2023-04-03T11:50:41;99179.25;;;10.36;41.63
44697;BME280;57264;47.480;19.354;2023-04-03T12:03:31;99163.72;;;10.99;42.23
44697;BME280;57264;47.480;19.354;2023-04-03T12:22:05;99149.44;;;10.11;43.26
44697;BME280;57264;47.480;19.354;2023-04-03T12:26:51;99160.31;;;9.29;46.93
44697;BME280;57264;47.480;19.354;2023-04-03T12:35:20;99159.75;;;9.47;43.59
44697;BME280;57264;47.480;19.354;2023-04-03T12:40:31;99152.47;;;9.55;45.58
44697;BME280;57264;47.480;19.354;2023-04-03T12:45:49;99146.63;;;9.53;45.73
44697;BME280;57264;47.480;19.354;2023-04-03T12:48:22;99150.03;;;9.47;46.72
44697;BME280;57264;47.480;19.354;2023-04-03T12:50:50;99150.09;;;9.67;44.77
44697;BME280;57264;47.480;19.354;2023-04-03T12:53:22;99152.06;;;9.84;45.38
44697;BME280;57264;47.480;19.354;2023-04-03T12:55:54;99147.63;;;9.46;43.88
44697;BME280;57264;47.480;19.354;2023-04-03T12:58:25;99139.38;;;9.62;45.09
44697;BME280;57264;47.480;19.354;2023-04-03T13:00:59;99145.22;;;9.77;45.42
44697;BME280;57264;47.480;19.354;2023-04-03T13:03:26;99136.75;;;9.55;44.17
44697;BME280;57264;47.480;19.354;2023-04-03T13:05:59;99139.38;;;9.55;44.35
44697;BME280;57264;47.480;19.354;2023-04-03T13:08:25;99143.22;;;9.66;45.57
44697;BME280;57264;47.480;19.354;2023-04-03T13:10:59;99147.44;;;9.86;46.25
44697;BME280;57264;47.480;19.354;2023-04-03T13:13:27;99130.31;;;9.64;44.12
44697;BME280;57264;47.480;19.354;2023-04-03T13:15:53;99125.66;;;9.60;44.52
44697;BME280;57264;47.480;19.354;2023-04-03T13:18:40;99130.50;;;9.69;43.90
44697;BME280;57264;47.480;19.354;2023-04-03T13:21:17;99133.53;;;9.66;44.21
44697;BME280;57264;47.480;19.354;2023-04-03T13:23:47;99125.66;;;9.79;42.28
44697;BME280;57264;47.480;19.354;2023-04-03T13:26:16;99129.31;;;9.65;44.50
44697;BME280;57264;47.480;19.354;2023-04-03T13:28:45;99127.28;;;9.94;44.01
44697;BME280;57264;47.480;19.354;2023-04-03T13:33:43;99124.66;;;9.94;42.50
44697;BME280;57264;47.480;19.354;2023-04-03T13:36:21;99122.41;;;10.04;42.61
44697;BME280;57264;47.480;19.354;2023-04-03T13:41:45;99122.41;;;10.10;42.72
44697;BME280;57264;47.480;19.354;2023-04-03T13:44:33;99113.13;;;10.14;41.43
44697;BME280;57264;47.480;19.354;2023-04-03T13:47:20;99101.25;;;9.99;44.59
44697;BME280;57264;47.480;19.354;2023-04-03T13:53:02;99108.69;;;10.21;44.08
44697;BME280;57264;47.480;19.354;2023-04-03T13:55:31;99106.66;;;10.17;42.88
44697;BME280;57264;47.480;19.354;2023-04-03T14:01:18;99102.00;;;10.12;43.60
44697;BME280;57264;47.480;19.354;2023-04-03T14:04:00;99092.97;;;10.15;43.21
44697;BME280;57264;47.480;19.354;2023-04-03T14:06:26;99097.38;;;10.08;44.81
44697;BME280;57264;47.480;19.354;2023-04-03T14:08:52;99091.31;;;10.20;45.02
44697;BME280;57264;47.480;19.354;2023-04-03T14:11:28;99099.00;;;10.22;43.69
44697;BME280;57264;47.480;19.354;2023-04-03T14:13:57;99089.22;;;10.49;41.03
44697;BME280;57264;47.480;19.354;2023-04-03T14:16:28;99089.91;;;10.31;43.25
44697;BME280;57264;47.480;19.354;2023-04-03T14:18:55;99098.97;;;10.35;42.74
44697;BME280;57264;47.480;19.354;2023-04-03T14:21:21;99094.88;;;10.46;40.43
44697;BME280;57264;47.480;19.354;2023-04-03T14:23:47;99098.97;;;10.35;40.06
44697;BME280;57264;47.480;19.354;2023-04-03T14:29:04;99103.25;;;10.10;39.44
44697;BME280;57264;47.480;19.354;2023-04-03T14:31:30;99091.75;;;9.98;39.85
44697;BME280;57264;47.480;19.354;2023-04-03T14:33:56;99100.59;;;10.03;39.99
44697;BME280;57264;47.480;19.354;2023-04-03T14:36:23;99089.13;;;10.04;42.10
44697;BME280;57264;47.480;19.354;2023-04-03T14:38:53;99094.13;;;10.12;40.88
44697;BME280;57264;47.480;19.354;2023-04-03T14:41:23;99094.59;;;10.03;41.30
44697;BME280;57264;47.480;19.354;2023-04-03T14:43:50;99103.47;;;10.02;39.30
44697;BME280;57264;47.480;19.354;2023-04-03T14:46:36;99098.84;;;9.77;39.91
44697;BME280;57264;47.480;19.354;2023-04-03T14:49:05;99099.47;;;9.66;40.73
44697;BME280;57264;47.480;19.354;2023-04-03T14:51:36;99103.69;;;9.67;39.90
44697;BME280;57264;47.480;19.354;2023-04-03T14:54:05;99100.88;;;9.49;41.21
44697;BME280;57264;47.480;19.354;2023-04-03T14:56:36;99096.25;;;9.45;40.16
44697;BME280;57264;47.480;19.354;2023-04-03T14:59:01;99099.25;;;9.48;40.26
44697;BME280;57264;47.480;19.354;2023-04-03T15:01:28;99095.22;;;9.72;40.48
44697;BME280;57264;47.480;19.354;2023-04-03T15:03:54;99100.69;;;9.70;41.15
44697;BME280;57264;47.480;19.354;2023-04-03T15:06:20;99106.09;;;9.10;39.89